Aviation Digital Data Service (ADDS)

Output produced by METARs form (1054 UTC 17 January 2017)
found at http://aviationweather.gov/adds/metars/
 
KPQI 170520Z 1706/1806 30006KT P6SM BKN050 
     FM171100 32006KT P6SM SCT050 
     FM172200 04004KT P6SM SCT250